Time;durP1;ratioP1;P1;durP2;ratioP2;P2;SDS_P1;SDS_P2;PMS_P1;PMS_P2;Temp;Humidity;BMP_temperature;BMP_pressure;BME280_temperature;BME280_humidity;BME280_pressure;Samples;Min_cycle;Max_cycle;Signal;HPM_P1;HPM_P2
2021/10/19 00:01:49;;;;;;;0.10;0.08;;;11.30;99.90;;;;;;6248222;22;20015;-80
2021/10/19 00:04:15;;;;;;;0.43;0.20;;;11.30;99.90;;;;;;6273482;22;20011;-80
2021/10/19 00:06:42;;;;;;;0.00;0.00;;;11.30;99.90;;;;;;6272930;22;20080;-80
2021/10/19 00:09:09;;;;;;;0.20;0.10;;;11.30;99.90;;;;;;6272994;22;20019;-80
2021/10/19 00:11:36;;;;;;;0.00;0.00;;;11.30;99.90;;;;;;6272875;22;20080;-80
2021/10/19 00:14:02;;;;;;;0.10;0.10;;;11.30;99.90;;;;;;6248089;22;20015;-80
2021/10/19 00:16:29;;;;;;;0.10;0.10;;;11.30;99.90;;;;;;6247382;22;20015;-80
2021/10/19 00:18:56;;;;;;;0.10;0.10;;;11.30;99.90;;;;;;6298159;22;20340;-80
2021/10/19 00:21:23;;;;;;;0.00;0.00;;;11.30;99.90;;;;;;6298720;22;20328;-79
2021/10/19 00:23:49;;;;;;;0.00;0.00;;;11.30;99.90;;;;;;6247753;22;20051;-80
2021/10/19 00:26:16;;;;;;;0.05;0.05;;;11.30;99.90;;;;;;6247901;22;20018;-80
2021/10/19 00:28:42;;;;;;;0.00;0.00;;;11.30;99.90;;;;;;6247654;22;20007;-80
2021/10/19 00:31:09;;;;;;;0.20;0.20;;;11.30;99.90;;;;;;6247853;22;20011;-80
2021/10/19 00:33:36;;;;;;;0.00;0.00;;;11.30;99.90;;;;;;6297791;22;20011;-80
2021/10/19 00:36:03;;;;;;;0.00;0.00;;;11.30;99.90;;;;;;6247248;22;20022;-80
2021/10/19 00:38:29;;;;;;;0.05;0.05;;;11.30;99.90;;;;;;6297904;22;20347;-80
2021/10/19 00:40:56;;;;;;;0.08;0.08;;;11.30;99.90;;;;;;6323517;22;20019;-80
2021/10/19 00:43:26;;;;;;;0.10;0.10;;;11.40;99.90;;;;;;6247967;22;20011;-80
2021/10/19 00:45:54;;;;;;;0.00;0.00;;;11.30;99.90;;;;;;6323747;22;20022;-80
2021/10/19 00:48:24;;;;;;;0.00;0.00;;;11.30;99.90;;;;;;6298583;22;20037;-80
2021/10/19 00:50:52;;;;;;;1.35;0.20;;;11.30;99.90;;;;;;6298478;22;20019;-80
2021/10/19 00:53:19;;;;;;;0.00;0.00;;;11.30;99.90;;;;;;6298022;22;20023;-80
2021/10/19 00:55:46;;;;;;;0.10;0.10;;;11.30;99.90;;;;;;6247310;22;20084;-80
2021/10/19 00:58:13;;;;;;;0.00;0.00;;;11.30;99.90;;;;;;6247652;22;20085;-80
2021/10/19 01:00:39;;;;;;;0.03;0.03;;;11.30;99.90;;;;;;6247474;22;20112;-80
2021/10/19 01:03:06;;;;;;;0.00;0.00;;;11.20;99.90;;;;;;6272889;22;20098;-80
2021/10/19 01:05:34;;;;;;;0.32;0.17;;;11.20;99.90;;;;;;6247720;22;20098;-80
2021/10/19 01:08:02;;;;;;;0.00;0.00;;;11.20;99.90;;;;;;6297558;22;20080;-80
2021/10/19 01:10:28;;;;;;;0.00;0.00;;;11.20;99.90;;;;;;6272471;22;20015;-80
2021/10/19 01:12:55;;;;;;;0.00;0.00;;;11.20;99.90;;;;;;6247374;22;20088;-80
2021/10/19 01:15:22;;;;;;;0.00;0.00;;;11.20;99.90;;;;;;6323184;22;20015;-80
2021/10/19 01:17:51;;;;;;;0.10;0.10;;;11.20;99.90;;;;;;6247070;22;20080;-80
2021/10/19 01:20:27;;;;;;;0.00;0.00;;;11.10;99.90;;;;;;6297665;22;20317;-80
2021/10/19 01:22:55;;;;;;;0.00;0.00;;;11.20;99.90;;;;;;6297479;22;20015;-80
2021/10/19 01:25:25;;;;;;;0.10;0.08;;;11.10;99.90;;;;;;6323434;22;20026;-80
2021/10/19 01:28:01;;;;;;;0.00;0.00;;;11.10;99.90;;;;;;6297555;22;20019;-80
2021/10/19 01:30:28;;;;;;;0.00;0.00;;;11.10;99.90;;;;;;6297921;22;20107;-80
2021/10/19 01:32:55;;;;;;;0.00;0.00;;;11.10;99.90;;;;;;6323002;22;20339;-80
2021/10/19 01:35:33;;;;;;;0.00;0.00;;;11.10;99.90;;;;;;6272522;22;20451;-80
2021/10/19 01:38:00;;;;;;;0.20;0.10;;;11.20;99.90;;;;;;6272288;22;20027;-80
2021/10/19 01:40:27;;;;;;;0.10;0.10;;;11.20;99.90;;;;;;6323176;22;20015;-79
2021/10/19 01:42:54;;;;;;;0.10;0.10;;;11.20;99.90;;;;;;6272144;22;20023;-80
2021/10/19 01:45:20;;;;;;;0.15;0.10;;;11.30;99.90;;;;;;6323232;22;20094;-79
2021/10/19 01:47:47;;;;;;;0.10;0.10;;;11.30;99.90;;;;;;6322868;22;20068;-80
2021/10/19 01:50:16;;;;;;;0.00;0.00;;;11.30;99.90;;;;;;6247364;22;20020;-80
2021/10/19 01:52:45;;;;;;;0.00;0.00;;;11.30;99.90;;;;;;6297531;22;20026;-80
2021/10/19 01:55:12;;;;;;;0.00;0.00;;;11.40;99.90;;;;;;6297283;22;20016;-80
2021/10/19 01:57:39;;;;;;;0.00;0.00;;;11.40;99.90;;;;;;6297216;22;20089;-80
2021/10/19 02:00:08;;;;;;;0.10;0.10;;;11.40;99.90;;;;;;6272179;22;20074;-80
2021/10/19 02:02:35;;;;;;;0.05;0.05;;;11.40;99.90;;;;;;6297650;22;20016;-80
2021/10/19 02:05:02;;;;;;;0.10;0.10;;;11.40;99.90;;;;;;6272118;22;20023;-80
2021/10/19 02:07:29;;;;;;;0.00;0.00;;;11.40;99.90;;;;;;6322902;22;20019;-80
2021/10/19 02:09:55;;;;;;;0.00;0.00;;;11.50;99.90;;;;;;6271977;22;20019;-80
2021/10/19 02:12:22;;;;;;;0.10;0.10;;;11.50;99.90;;;;;;6272368;22;20019;-80
2021/10/19 02:14:49;;;;;;;0.63;0.22;;;11.50;99.90;;;;;;6271900;22;20059;-80
2021/10/19 02:17:15;;;;;;;0.00;0.00;;;11.60;99.90;;;;;;6297457;22;20007;-80
2021/10/19 02:19:42;;;;;;;0.00;0.00;;;11.50;99.90;;;;;;6297297;22;20432;-80
2021/10/19 02:22:10;;;;;;;0.00;0.00;;;11.50;99.90;;;;;;6272603;22;20842;-80
2021/10/19 02:24:36;;;;;;;0.00;0.00;;;11.60;99.90;;;;;;6247187;22;20023;-80
2021/10/19 02:27:03;;;;;;;0.10;0.10;;;11.60;99.90;;;;;;6297303;22;20094;-80
2021/10/19 02:29:30;;;;;;;0.00;0.00;;;11.60;99.90;;;;;;6272334;22;20022;-80
2021/10/19 02:31:57;;;;;;;0.00;0.00;;;11.60;99.90;;;;;;6322686;22;20019;-80
2021/10/19 02:34:24;;;;;;;0.00;0.00;;;11.60;99.90;;;;;;6297124;22;20020;-80
2021/10/19 02:36:51;;;;;;;0.08;0.08;;;11.70;99.90;;;;;;6322577;22;20020;-80
2021/10/19 02:39:17;;;;;;;0.00;0.00;;;11.70;99.90;;;;;;6272737;22;20448;-80
2021/10/19 02:41:44;;;;;;;0.00;0.00;;;11.70;99.90;;;;;;6299182;22;20019;-80
2021/10/19 02:44:12;;;;;;;0.00;0.00;;;11.70;99.90;;;;;;6249338;22;20114;-80
2021/10/19 02:46:38;;;;;;;0.00;0.00;;;11.70;99.90;;;;;;6299244;22;20092;-80
2021/10/19 02:49:06;;;;;;;0.00;0.00;;;11.60;99.90;;;;;;6299168;22;20103;-80
2021/10/19 02:51:32;;;;;;;0.17;0.17;;;11.70;99.90;;;;;;6274340;22;20015;-80
2021/10/19 02:53:59;;;;;;;0.00;0.00;;;11.70;99.90;;;;;;6299018;22;20314;-80
2021/10/19 02:56:26;;;;;;;0.15;0.10;;;11.70;99.90;;;;;;6299163;22;20015;-80
2021/10/19 02:58:52;;;;;;;0.17;0.17;;;11.70;99.90;;;;;;6298840;22;20015;-80
2021/10/19 03:01:19;;;;;;;0.20;0.10;;;11.70;99.90;;;;;;6299049;22;20046;-80
2021/10/19 03:03:46;;;;;;;0.00;0.00;;;11.80;99.90;;;;;;6248998;22;20522;-80
2021/10/19 03:06:12;;;;;;;0.10;0.10;;;11.80;99.90;;;;;;6298740;22;20042;-80
2021/10/19 03:08:39;;;;;;;0.10;0.10;;;11.80;99.90;;;;;;6273727;22;20317;-80
2021/10/19 03:11:06;;;;;;;0.00;0.00;;;11.80;99.90;;;;;;6248791;22;20022;-80
2021/10/19 03:13:33;;;;;;;0.28;0.20;;;11.80;99.90;;;;;;6248791;22;20011;-80
2021/10/19 03:15:59;;;;;;;0.00;0.00;;;11.80;99.90;;;;;;6273238;22;20459;-80
2021/10/19 03:18:26;;;;;;;0.00;0.00;;;11.90;99.90;;;;;;6248543;22;20054;-80
2021/10/19 03:20:54;;;;;;;0.32;0.10;;;11.80;99.90;;;;;;6273582;22;20077;-80
2021/10/19 03:23:21;;;;;;;0.80;0.22;;;11.90;99.90;;;;;;6248873;22;20003;-80
2021/10/19 03:25:48;;;;;;;0.00;0.00;;;11.90;99.90;;;;;;6248811;22;20026;-80
2021/10/19 03:28:14;;;;;;;0.20;0.20;;;11.80;99.90;;;;;;6298636;22;20447;-80
2021/10/19 03:30:42;;;;;;;0.08;0.08;;;11.90;99.90;;;;;;6298621;22;20015;-80
2021/10/19 03:33:09;;;;;;;0.10;0.10;;;11.90;99.90;;;;;;6323982;22;20344;-80
2021/10/19 03:35:36;;;;;;;0.00;0.00;;;11.90;99.90;;;;;;6298867;22;20015;-80
2021/10/19 03:38:03;;;;;;;0.43;0.25;;;11.90;99.90;;;;;;6298523;22;20016;-80
2021/10/19 03:40:30;;;;;;;0.10;0.10;;;11.90;99.90;;;;;;6273813;22;20096;-80
2021/10/19 03:42:57;;;;;;;0.10;0.10;;;11.90;99.90;;;;;;6298424;22;20022;-80
2021/10/19 03:45:23;;;;;;;0.00;0.00;;;11.90;99.90;;;;;;6273503;22;20463;-80
2021/10/19 03:47:50;;;;;;;0.38;0.20;;;11.90;99.90;;;;;;6248303;22;20019;-80
2021/10/19 03:50:17;;;;;;;0.00;0.00;;;11.90;99.90;;;;;;6297881;22;20019;-80
2021/10/19 03:52:44;;;;;;;0.00;0.00;;;11.90;99.90;;;;;;6298427;22;20026;-80
2021/10/19 03:55:10;;;;;;;0.00;0.00;;;11.90;99.90;;;;;;6248040;22;20803;-80
2021/10/19 03:57:39;;;;;;;0.00;0.00;;;11.90;99.90;;;;;;6248187;22;20011;-80
2021/10/19 04:00:07;;;;;;;0.05;0.05;;;11.90;99.90;;;;;;6248677;22;20061;-80
2021/10/19 04:02:34;;;;;;;0.05;0.00;;;11.90;99.90;;;;;;6323927;22;20011;-80
2021/10/19 04:05:01;;;;;;;0.52;0.10;;;11.90;99.90;;;;;;6247677;22;20015;-80
2021/10/19 04:07:28;;;;;;;0.20;0.10;;;11.80;99.90;;;;;;6298379;22;20054;-80
2021/10/19 04:09:54;;;;;;;0.00;0.00;;;11.90;99.90;;;;;;6248296;22;20034;-80
2021/10/19 04:12:21;;;;;;;0.00;0.00;;;11.90;99.90;;;;;;6272762;22;20023;-80
2021/10/19 04:14:48;;;;;;;0.15;0.10;;;11.80;99.90;;;;;;6298222;22;20102;-80
2021/10/19 04:17:16;;;;;;;0.08;0.08;;;11.80;99.90;;;;;;6298244;22;20015;-80
2021/10/19 04:19:43;;;;;;;0.10;0.10;;;11.80;99.90;;;;;;6298583;22;20011;-80
2021/10/19 04:22:09;;;;;;;0.00;0.00;;;11.80;99.90;;;;;;6247793;22;20066;-80
2021/10/19 04:24:36;;;;;;;0.00;0.00;;;11.80;99.90;;;;;;6273124;22;20053;-80
2021/10/19 04:27:03;;;;;;;2.28;0.10;;;11.80;99.90;;;;;;6297970;22;20058;-80
2021/10/19 04:29:30;;;;;;;0.05;0.05;;;11.90;99.90;;;;;;6272751;22;20073;-80
2021/10/19 04:31:57;;;;;;;0.00;0.00;;;11.90;99.90;;;;;;6273215;22;20101;-80
2021/10/19 04:34:24;;;;;;;0.00;0.00;;;11.80;99.90;;;;;;6297889;22;20025;-80
2021/10/19 04:36:50;;;;;;;0.10;0.10;;;11.90;99.90;;;;;;6247910;22;20023;-80
2021/10/19 04:39:17;;;;;;;1.85;0.25;;;11.90;99.90;;;;;;6247776;22;20011;-80
2021/10/19 04:41:44;;;;;;;0.00;0.00;;;11.90;99.90;;;;;;6297791;22;20019;-80
2021/10/19 04:44:12;;;;;;;0.10;0.10;;;12.00;99.90;;;;;;6272602;22;20049;-80
2021/10/19 04:46:39;;;;;;;0.10;0.10;;;11.90;99.90;;;;;;6297755;22;20243;-80
2021/10/19 04:49:05;;;;;;;0.00;0.00;;;12.00;99.90;;;;;;6298127;22;20019;-80
2021/10/19 04:51:32;;;;;;;0.10;0.10;;;12.00;99.90;;;;;;6247847;22;20351;-80
2021/10/19 04:54:00;;;;;;;0.00;0.00;;;12.00;99.90;;;;;;6323505;22;20019;-80
2021/10/19 04:56:26;;;;;;;0.00;0.00;;;12.00;99.90;;;;;;6323485;22;20391;-80
2021/10/19 04:58:53;;;;;;;0.00;0.00;;;12.00;99.90;;;;;;6298037;22;20015;-80
2021/10/19 05:01:20;;;;;;;0.10;0.10;;;12.10;99.90;;;;;;6247097;22;20432;-80
2021/10/19 05:03:47;;;;;;;0.00;0.00;;;12.00;99.90;;;;;;6247130;22;20437;-80
2021/10/19 05:06:14;;;;;;;0.00;0.00;;;12.00;99.90;;;;;;6323185;22;20336;-80
2021/10/19 05:08:41;;;;;;;0.00;0.00;;;12.10;99.90;;;;;;6272660;22;20015;-80
2021/10/19 05:11:08;;;;;;;0.00;0.00;;;12.10;99.90;;;;;;6297518;22;20022;-80
2021/10/19 05:13:35;;;;;;;0.00;0.00;;;12.10;99.90;;;;;;6323581;22;20094;-80
2021/10/19 05:16:02;;;;;;;0.10;0.10;;;12.10;99.90;;;;;;6298003;22;20019;-79
2021/10/19 05:18:28;;;;;;;0.00;0.00;;;12.10;99.90;;;;;;6297640;22;20015;-79
2021/10/19 05:20:55;;;;;;;0.32;0.10;;;12.20;99.90;;;;;;6247454;22;20440;-80
2021/10/19 05:23:22;;;;;;;0.00;0.00;;;12.20;99.90;;;;;;6297552;22;20022;-80
2021/10/19 05:25:49;;;;;;;0.30;0.25;;;12.20;99.90;;;;;;6272418;22;20470;-80
2021/10/19 05:28:15;;;;;;;0.00;0.00;;;12.20;99.90;;;;;;6297471;22;20011;-80
2021/10/19 05:30:42;;;;;;;0.10;0.10;;;12.20;99.90;;;;;;6297553;22;20020;-80
2021/10/19 05:33:09;;;;;;;0.00;0.00;;;12.20;99.90;;;;;;6297603;22;20058;-80
2021/10/19 05:35:36;;;;;;;0.10;0.10;;;12.20;99.90;;;;;;6297646;22;20016;-80
2021/10/19 05:38:02;;;;;;;0.68;0.10;;;12.30;99.90;;;;;;6272357;22;20041;-80
2021/10/19 05:40:29;;;;;;;0.00;0.00;;;12.30;99.90;;;;;;6297327;22;20467;-80
2021/10/19 05:42:56;;;;;;;0.10;0.05;;;12.30;99.90;;;;;;6272369;22;20026;-80
2021/10/19 05:45:22;;;;;;;0.10;0.10;;;12.30;99.90;;;;;;6247097;22;20015;-80
2021/10/19 05:47:49;;;;;;;0.00;0.00;;;12.30;99.90;;;;;;6323178;22;20444;-80
2021/10/19 05:50:17;;;;;;;0.00;0.00;;;12.30;99.90;;;;;;6297410;22;20447;-80
2021/10/19 05:52:44;;;;;;;0.55;0.10;;;12.30;99.90;;;;;;6297480;22;20022;-80
2021/10/19 05:55:12;;;;;;;0.20;0.15;;;12.30;99.90;;;;;;6272128;22;20384;-80
2021/10/19 05:57:39;;;;;;;0.00;0.00;;;12.30;99.90;;;;;;6322687;22;20321;-80
2021/10/19 06:00:07;;;;;;;0.00;0.00;;;12.30;99.90;;;;;;6297370;22;20018;-79
2021/10/19 06:02:34;;;;;;;0.00;0.00;;;12.30;99.90;;;;;;6296598;22;20077;-79
2021/10/19 06:05:00;;;;;;;0.17;0.10;;;12.30;99.90;;;;;;6246809;22;20019;-80
2021/10/19 06:07:27;;;;;;;0.00;0.00;;;12.30;99.90;;;;;;6271573;22;20019;-80
2021/10/19 06:09:54;;;;;;;0.00;0.00;;;12.30;99.90;;;;;;6247274;22;20026;-78
2021/10/19 06:12:20;;;;;;;0.00;0.00;;;12.30;99.90;;;;;;6297340;22;20021;-79
2021/10/19 06:14:47;;;;;;;0.00;0.00;;;12.30;99.90;;;;;;6247482;22;20012;-79
2021/10/19 06:17:14;;;;;;;0.00;0.00;;;12.30;99.90;;;;;;6298993;22;20015;-79
2021/10/19 06:19:41;;;;;;;0.00;0.00;;;12.40;99.90;;;;;;6298241;22;20072;-79
2021/10/19 06:22:07;;;;;;;0.22;0.15;;;12.40;99.90;;;;;;6324668;22;20019;-78
2021/10/19 06:24:34;;;;;;;0.08;0.08;;;12.40;99.90;;;;;;6300217;22;20471;-77
2021/10/19 06:27:01;;;;;;;0.10;0.10;;;12.40;99.90;;;;;;6250213;22;20015;-78
2021/10/19 06:29:29;;;;;;;0.00;0.00;;;12.40;99.90;;;;;;6274095;22;20053;-79
2021/10/19 06:31:56;;;;;;;0.10;0.10;;;12.40;99.90;;;;;;6324570;22;20022;-79
2021/10/19 06:34:23;;;;;;;0.00;0.00;;;12.40;99.90;;;;;;6248510;22;20020;-79
2021/10/19 06:36:50;;;;;;;0.00;0.00;;;12.40;99.90;;;;;;6249246;22;20115;-78
2021/10/19 06:39:16;;;;;;;0.05;0.05;;;12.30;99.90;;;;;;6324695;22;20011;-79
2021/10/19 06:41:43;;;;;;;0.00;0.00;;;12.30;99.90;;;;;;6248543;22;20019;-78
2021/10/19 06:44:10;;;;;;;0.08;0.08;;;12.30;99.90;;;;;;6273717;22;20057;-79
2021/10/19 06:46:37;;;;;;;0.00;0.00;;;12.30;99.90;;;;;;6273796;22;20478;-78
2021/10/19 06:49:04;;;;;;;1.67;0.15;;;12.30;99.90;;;;;;6299279;22;20023;-77
2021/10/19 06:51:30;;;;;;;0.00;0.00;;;12.30;99.90;;;;;;6248773;22;20348;-78
2021/10/19 06:53:57;;;;;;;1.02;0.20;;;12.30;99.90;;;;;;6273506;22;20019;-77
2021/10/19 06:56:23;;;;;;;0.00;0.00;;;12.30;99.90;;;;;;6248531;22;20011;-78
2021/10/19 06:58:50;;;;;;;0.00;0.00;;;12.40;99.90;;;;;;6273911;22;20019;-79
2021/10/19 07:01:19;;;;;;;0.00;0.00;;;12.40;99.90;;;;;;6298713;22;20019;-79
2021/10/19 07:03:45;;;;;;;0.10;0.10;;;12.40;99.90;;;;;;6273750;22;20011;-78
2021/10/19 07:06:13;;;;;;;0.00;0.00;;;12.40;99.90;;;;;;6273815;22;20089;-78
2021/10/19 07:08:39;;;;;;;0.00;0.00;;;12.50;99.90;;;;;;6324454;22;20146;-78
2021/10/19 07:11:07;;;;;;;0.30;0.20;;;12.40;99.90;;;;;;6273525;22;20062;-78
2021/10/19 07:13:34;;;;;;;0.00;0.00;;;12.50;99.90;;;;;;6248710;22;20007;-78
2021/10/19 07:16:01;;;;;;;0.00;0.00;;;12.50;99.90;;;;;;6273807;22;20022;-78
2021/10/19 07:18:28;;;;;;;0.10;0.10;;;12.50;99.90;;;;;;6298217;22;20046;-79
2021/10/19 07:20:55;;;;;;;0.00;0.00;;;12.60;99.90;;;;;;6248250;22;20428;-78
2021/10/19 07:23:21;;;;;;;0.38;0.20;;;12.60;99.90;;;;;;6298817;22;20498;-79
2021/10/19 07:25:49;;;;;;;0.00;0.00;;;12.60;99.90;;;;;;6248059;22;20053;-78
2021/10/19 07:28:16;;;;;;;0.10;0.10;;;12.60;99.90;;;;;;6273266;22;20011;-78
2021/10/19 07:30:43;;;;;;;0.00;0.00;;;12.70;99.90;;;;;;6273436;22;20053;-79
2021/10/19 07:33:09;;;;;;;0.00;0.00;;;12.70;99.90;;;;;;6273571;22;20069;-80
2021/10/19 07:35:36;;;;;;;0.00;0.00;;;12.70;99.90;;;;;;6248131;22;20020;-78
2021/10/19 07:38:05;;;;;;;0.00;0.00;;;12.80;99.90;;;;;;6272850;22;20015;-79
2021/10/19 07:40:31;;;;;;;0.28;0.00;;;12.80;99.90;;;;;;6272896;22;20023;-79
2021/10/19 07:42:58;;;;;;;0.15;0.15;;;12.80;99.90;;;;;;6273080;22;20336;-79
2021/10/19 07:45:26;;;;;;;0.08;0.08;;;12.90;99.90;;;;;;6248354;22;20015;-81
2021/10/19 07:47:53;;;;;;;0.05;0.05;;;12.90;99.90;;;;;;6272950;22;20015;-82
2021/10/19 07:50:21;;;;;;;0.10;0.10;;;12.90;99.90;;;;;;6273523;22;20019;-80
2021/10/19 07:52:50;;;;;;;0.00;0.00;;;12.90;99.90;;;;;;6273186;22;20019;-80
2021/10/19 07:55:16;;;;;;;0.00;0.00;;;12.90;99.90;;;;;;6298971;22;20022;-81
2021/10/19 07:57:45;;;;;;;0.10;0.10;;;13.00;99.90;;;;;;6273215;22;20011;-82
2021/10/19 08:00:13;;;;;;;0.00;0.00;;;13.00;99.90;;;;;;6298171;22;20015;-83
2021/10/19 08:02:44;;;;;;;0.00;0.00;;;13.10;99.90;;;;;;6273065;22;20011;-82
2021/10/19 08:05:15;;;;;;;0.00;0.00;;;13.10;99.90;;;;;;6273678;22;20011;-81
2021/10/19 08:07:44;;;;;;;0.00;0.00;;;13.10;99.90;;;;;;6298110;22;20011;-81
2021/10/19 08:10:13;;;;;;;0.00;0.00;;;13.10;99.90;;;;;;6323927;22;20019;-81
2021/10/19 08:12:39;;;;;;;0.05;0.05;;;13.10;99.90;;;;;;6323596;22;20050;-81
2021/10/19 08:15:07;;;;;;;0.00;0.00;;;13.20;99.90;;;;;;6272856;22;20027;-81
2021/10/19 08:17:33;;;;;;;0.03;0.03;;;13.20;99.90;;;;;;6273248;22;20064;-81
2021/10/19 08:20:02;;;;;;;0.00;0.00;;;13.20;99.90;;;;;;6273351;22;20065;-81
2021/10/19 08:22:31;;;;;;;0.10;0.10;;;13.30;99.90;;;;;;6273156;22;20456;-80
2021/10/19 08:24:58;;;;;;;0.03;0.03;;;13.30;99.90;;;;;;6297567;22;20011;-81
2021/10/19 08:27:26;;;;;;;0.15;0.15;;;13.30;99.90;;;;;;6296632;22;20082;-81
2021/10/19 08:29:53;;;;;;;0.00;0.00;;;13.40;99.90;;;;;;6272659;22;20080;-82
2021/10/19 08:32:19;;;;;;;0.00;0.00;;;13.40;99.90;;;;;;6248068;22;20065;-82
2021/10/19 08:34:47;;;;;;;0.00;0.00;;;13.40;99.90;;;;;;6297656;22;20448;-82
2021/10/19 08:37:14;;;;;;;0.00;0.00;;;13.50;99.90;;;;;;6297658;22;20093;-83
2021/10/19 08:39:41;;;;;;;0.10;0.08;;;13.50;99.90;;;;;;6323293;22;20100;-83
2021/10/19 08:42:08;;;;;;;0.00;0.00;;;13.60;99.90;;;;;;6272536;22;20023;-83
2021/10/19 08:44:35;;;;;;;0.00;0.00;;;13.60;99.90;;;;;;6248068;22;20325;-83
2021/10/19 08:47:02;;;;;;;0.00;0.00;;;13.60;99.90;;;;;;6247797;22;20016;-82
2021/10/19 08:49:29;;;;;;;0.00;0.00;;;13.60;99.90;;;;;;6247834;22;20019;-83
2021/10/19 08:51:56;;;;;;;0.20;0.20;;;13.70;99.90;;;;;;6247072;22;20371;-83
2021/10/19 08:54:23;;;;;;;0.00;0.00;;;13.70;99.90;;;;;;6247434;22;20023;-83
2021/10/19 08:56:50;;;;;;;0.00;0.00;;;13.70;99.90;;;;;;6272563;22;20459;-83
2021/10/19 08:59:22;;;;;;;0.47;0.22;;;13.70;99.90;;;;;;6297725;22;20022;-83
2021/10/19 09:01:53;;;;;;;0.20;0.10;;;13.70;99.90;;;;;;6273158;22;20019;-84
2021/10/19 09:04:20;;;;;;;0.10;0.10;;;13.70;99.90;;;;;;6273262;22;20029;-84
2021/10/19 09:06:46;;;;;;;0.00;0.00;;;13.80;99.90;;;;;;6297585;22;20015;-84
2021/10/19 09:09:25;;;;;;;0.00;0.00;;;13.80;99.90;;;;;;6323045;22;20038;-83
2021/10/19 09:11:58;;;;;;;0.00;0.00;;;13.80;99.90;;;;;;6274356;22;20344;-85
2021/10/19 09:14:31;;;;;;;0.00;0.00;;;13.80;99.90;;;;;;6297655;22;20348;-87
2021/10/19 09:17:00;;;;;;;0.00;0.00;;;13.80;99.90;;;;;;6323224;22;20026;-85
2021/10/19 09:19:28;;;;;;;0.00;0.00;;;13.80;99.90;;;;;;6273458;22;20015;-82
2021/10/19 09:22:09;;;;;;;0.00;0.00;;;13.90;99.90;;;;;;6297450;22;20436;-83
2021/10/19 09:24:38;;;;;;;0.20;0.17;;;13.90;99.90;;;;;;6297527;22;20061;-83
2021/10/19 09:27:15;;;;;;;0.00;0.00;;;13.90;99.90;;;;;;6272240;22;21003;-83
2021/10/19 09:29:46;;;;;;;0.00;0.00;;;13.90;99.90;;;;;;6297326;22;20054;-82
2021/10/19 09:32:13;;;;;;;0.15;0.10;;;14.00;99.90;;;;;;6297537;22;20015;-83
2021/10/19 09:34:44;;;;;;;0.00;0.00;;;14.00;99.90;;;;;;6272590;22;20466;-82
2021/10/19 09:37:18;;;;;;;0.00;0.00;;;14.00;99.90;;;;;;6272694;22;20026;-84
2021/10/19 09:39:48;;;;;;;0.03;0.03;;;14.00;99.90;;;;;;6323147;22;20069;-81
2021/10/19 09:42:26;;;;;;;0.28;0.10;;;14.00;99.90;;;;;;6297358;22;20051;-82
2021/10/19 09:45:00;;;;;;;0.43;0.30;;;14.10;99.90;;;;;;6271939;22;20015;-81
2021/10/19 09:47:37;;;;;;;0.00;0.00;;;14.10;99.90;;;;;;6323789;22;20022;-79
2021/10/19 09:50:06;;;;;;;0.00;0.00;;;14.10;99.90;;;;;;6276724;22;20344;-80
2021/10/19 09:52:39;;;;;;;0.00;0.00;;;14.10;99.90;;;;;;6249389;22;20022;-80
2021/10/19 09:55:09;;;;;;;0.20;0.20;;;14.10;99.90;;;;;;6326446;22;20316;-80
2021/10/19 09:57:38;;;;;;;0.17;0.17;;;14.10;99.90;;;;;;6274830;22;20077;-80
2021/10/19 10:00:09;;;;;;;0.00;0.00;;;14.10;99.90;;;;;;6299145;22;20046;-80
2021/10/19 10:02:37;;;;;;;0.30;0.30;;;14.10;99.90;;;;;;6299462;22;20011;-80
2021/10/19 10:05:05;;;;;;;0.00;0.00;;;14.10;99.90;;;;;;6299416;22;20023;-80
2021/10/19 10:07:37;;;;;;;0.10;0.10;;;14.10;99.90;;;;;;6299440;22;20019;-80
2021/10/19 10:10:05;;;;;;;0.00;0.00;;;14.10;99.90;;;;;;6275206;22;20030;-80
2021/10/19 10:12:33;;;;;;;0.00;0.00;;;14.10;99.90;;;;;;6274625;22;20348;-80
2021/10/19 10:15:01;;;;;;;0.00;0.00;;;14.10;99.90;;;;;;6324595;22;20020;-81
2021/10/19 10:17:27;;;;;;;0.10;0.10;;;14.20;99.90;;;;;;6274214;22;20012;-80
2021/10/19 10:20:08;;;;;;;0.00;0.00;;;14.20;99.90;;;;;;6299171;22;20164;-81
2021/10/19 10:22:43;;;;;;;0.10;0.10;;;14.20;99.90;;;;;;6299246;22;20043;-80
2021/10/19 10:25:13;;;;;;;;;;;14.20;99.90;;;;;;6299400;22;20409;-80
2021/10/19 10:27:40;;;;;;;0.00;0.00;;;14.20;99.90;;;;;;6299217;22;19911;-80
2021/10/19 10:30:24;;;;;;;0.00;0.00;;;14.30;99.90;;;;;;6299109;22;20026;-81
2021/10/19 10:32:54;;;;;;;0.00;0.00;;;14.30;99.90;;;;;;6324879;22;20441;-81
2021/10/19 10:35:24;;;;;;;0.00;0.00;;;14.40;99.90;;;;;;6275056;22;20021;-81
2021/10/19 10:37:52;;;;;;;0.10;0.10;;;14.40;99.90;;;;;;6299369;22;20022;-80
2021/10/19 10:40:27;;;;;;;0.00;0.00;;;14.40;99.90;;;;;;6298971;22;20065;-81
2021/10/19 10:42:56;;;;;;;0.13;0.13;;;14.40;99.90;;;;;;6298972;22;20023;-80
2021/10/19 10:45:32;;;;;;;0.00;0.00;;;14.50;99.90;;;;;;6273995;22;20348;-80
2021/10/19 10:48:02;;;;;;;0.03;0.03;;;14.50;99.90;;;;;;6299144;22;20085;-81
2021/10/19 10:50:31;;;;;;;0.00;0.00;;;14.60;99.90;;;;;;6299011;22;20710;-80
2021/10/19 10:53:03;;;;;;;0.13;0.13;;;14.60;99.90;;;;;;6274466;22;20015;-81
2021/10/19 10:55:48;;;;;;;0.08;0.08;;;14.60;99.90;;;;;;6298999;22;20022;-81
2021/10/19 10:58:23;;;;;;;0.00;0.00;;;14.60;99.90;;;;;;6298970;22;20041;-81
2021/10/19 11:00:51;;;;;;;0.05;0.05;;;14.70;99.90;;;;;;6298409;22;20307;-78
2021/10/19 11:03:19;;;;;;;0.10;0.10;;;14.70;99.90;;;;;;6324160;22;20023;-78
2021/10/19 11:06:04;;;;;;;0.10;0.10;;;14.70;99.90;;;;;;6299006;22;20317;-79
2021/10/19 11:08:33;;;;;;;0.00;0.00;;;14.80;99.90;;;;;;6298846;22;20016;-79
2021/10/19 11:11:12;;;;;;;0.20;0.10;;;14.80;99.90;;;;;;6298543;22;20102;-81
2021/10/19 11:13:59;;;;;;;0.00;0.00;;;14.80;99.90;;;;;;6298841;22;20027;-78
2021/10/19 11:16:40;;;;;;;0.10;0.00;;;14.80;99.90;;;;;;6298619;22;20019;-79
2021/10/19 11:19:16;;;;;;;0.10;0.05;;;14.90;99.90;;;;;;6298658;22;20065;-79
2021/10/19 11:21:43;;;;;;;0.00;0.00;;;14.90;99.90;;;;;;6298320;22;20019;-79
2021/10/19 11:24:10;;;;;;;0.00;0.00;;;14.90;99.90;;;;;;6272785;22;20019;-79
2021/10/19 11:26:37;;;;;;;0.00;0.00;;;14.90;99.90;;;;;;6272824;22;20007;-79
2021/10/19 11:29:04;;;;;;;0.00;0.00;;;15.00;99.90;;;;;;6273440;22;20065;-79
2021/10/19 11:31:32;;;;;;;0.00;0.00;;;15.00;99.90;;;;;;6324249;22;20015;-78
2021/10/19 11:34:00;;;;;;;0.10;0.10;;;15.00;99.90;;;;;;6273584;22;20148;-78
2021/10/19 11:36:27;;;;;;;0.00;0.00;;;15.00;99.90;;;;;;6298607;22;20511;-78
2021/10/19 11:38:56;;;;;;;0.10;0.10;;;15.00;99.90;;;;;;6324379;22;20348;-79
2021/10/19 11:41:31;;;;;;;0.08;0.08;;;15.10;99.90;;;;;;6298090;22;20444;-79
2021/10/19 11:44:00;;;;;;;0.00;0.00;;;15.10;99.90;;;;;;6324002;22;20065;-79
2021/10/19 11:46:29;;;;;;;1.30;0.10;;;15.10;99.90;;;;;;6298171;22;20022;-78
2021/10/19 11:49:01;;;;;;;0.08;0.08;;;15.10;99.90;;;;;;6273642;22;20011;-79
2021/10/19 11:51:29;;;;;;;0.03;0.03;;;15.10;99.90;;;;;;6298448;22;20321;-78
2021/10/19 11:53:57;;;;;;;0.03;0.03;;;15.20;99.90;;;;;;6248348;22;20019;-78
2021/10/19 11:56:24;;;;;;;0.10;0.10;;;15.20;99.90;;;;;;6248152;22;20023;-78
2021/10/19 11:58:51;;;;;;;0.00;0.00;;;15.20;99.90;;;;;;6273076;22;20075;-78
2021/10/19 12:01:22;;;;;;;0.40;0.10;;;15.20;99.90;;;;;;6297982;22;20015;-78
2021/10/19 12:04:04;;;;;;;0.13;0.10;;;15.30;99.90;;;;;;6323708;22;20023;-78
2021/10/19 12:06:32;;;;;;;0.30;0.10;;;15.30;99.90;;;;;;6297835;22;20076;-78
2021/10/19 12:09:21;;;;;;;0.00;0.00;;;15.40;99.90;;;;;;6323815;22;20464;-78
2021/10/19 12:11:56;;;;;;;0.43;0.30;;;15.40;99.90;;;;;;6297885;22;20012;-78
2021/10/19 12:14:35;;;;;;;0.00;0.00;;;15.40;99.90;;;;;;6297874;22;20073;-78
2021/10/19 12:17:06;;;;;;;0.00;0.00;;;15.40;99.90;;;;;;6298087;22;20090;-78
2021/10/19 12:19:36;;;;;;;0.05;0.05;;;15.40;99.90;;;;;;6297852;22;20027;-78
2021/10/19 12:22:09;;;;;;;0.00;0.00;;;15.50;99.90;;;;;;6273236;22;20499;-79
2021/10/19 12:24:41;;;;;;;0.00;0.00;;;15.50;99.90;;;;;;6297750;22;20440;-78
2021/10/19 12:27:14;;;;;;;0.00;0.00;;;15.50;99.90;;;;;;6298338;22;20016;-78
2021/10/19 12:29:41;;;;;;;0.10;0.10;;;15.50;99.90;;;;;;6298007;22;20102;-78
2021/10/19 12:32:08;;;;;;;0.10;0.10;;;15.50;99.90;;;;;;6298057;22;20015;-78
2021/10/19 12:34:39;;;;;;;0.30;0.20;;;15.50;99.90;;;;;;6297732;22;20022;-79
2021/10/19 12:37:08;;;;;;;0.10;0.10;;;15.50;99.90;;;;;;6273385;22;20011;-79
2021/10/19 12:39:44;;;;;;;0.10;0.10;;;15.60;99.90;;;;;;6294188;22;20378;-78
2021/10/19 12:42:12;;;;;;;0.05;0.05;;;15.60;99.90;;;;;;6322558;22;20019;-78
2021/10/19 12:44:39;;;;;;;0.10;0.10;;;15.60;99.90;;;;;;6247276;22;20038;-79
2021/10/19 12:47:06;;;;;;;0.35;0.25;;;15.60;99.90;;;;;;6272842;22;20019;-79
2021/10/19 12:49:33;;;;;;;0.10;0.10;;;15.60;99.90;;;;;;6272642;22;20387;-79
2021/10/19 12:52:00;;;;;;;0.00;0.00;;;15.60;99.90;;;;;;6297558;22;20023;-79
2021/10/19 12:54:27;;;;;;;0.05;0.05;;;15.60;99.90;;;;;;6247118;22;20080;-79